Terminal Aerodrome Forecast
Issued by NWS

Home | Current Version | Previous Version | Text Only | Print | Product List | Glossary On
Versions: 1 2 3 4 5 6 7 8 9 10 11 12 13 14 15 16 17 18
000
FTUS43 KICT 021125
TAFSLN
TAF
KSLN 021125Z 0212/0312 12010KT P6SM VCSH BKN040 OVC090
     FM021600 16016G22KT P6SM SCT035 BKN100
     FM022000 17020G28KT P6SM BKN150
     FM030200 15012KT P6SM SCT035 BKN250=

USA.gov is the U.S. government's official web portal to all federal, state and local government web resources and services.